MROC/SJO METAR and TAF weather

Enter ICAO airport designator
Station Type Date Time Source
MROC METAR 2020/07/11 01:00 UTC NOAA

MROC 110100Z 23003KT 8000 2000SW BCFG FEW003 SCT015 BKN030 21/21 A3004 NOSIG


Station Type Date Time Source
MROC Decoded METAR 2020/07/11 01:00 UTC NOAA

Juan Santamaria, Costa Rica (MROC) 10-00N 084-13W 939M
Jul 10, 2020 - 09:00 PM EDT / 2020.07.11 0100 UTC
Wind: from the SW (230 degrees) at 3 MPH (3 KT):0
Visibility: 4 mile(s):0
Sky conditions: mostly cloudy
Weather: patches of fog
Temperature: 69 F (21 C)
Dew Point: 69 F (21 C)
Relative Humidity: 100%
Pressure (altimeter): 30.04 in. Hg (1017 hPa)
ob: MROC 110100Z 23003KT 8000 2000SW BCFG FEW003 SCT015 BKN030 21/21 A3004 NOSIG
cycle: 1

Station Type Date Time Source
MROC TAF 2020/07/10 18:21 UTC NOAA

TAF MROC 101700Z 1018/1118 24007KT 9999 SCT020 TX28/1018Z TN20/1110Z
TEMPO 1019/1022 SHRA FEW020CB
TEMPO 1100/1106 VRB02KT 5000 BR
TEMPO 1107/1115 07005KT

Example: see airport list